sensor_id;sensor_type;location;lat;lon;timestamp;P1;durP1;ratioP1;P2;durP2;ratioP2
34505;SDS011;20748;42.632;23.198;2022-12-07T00:00:06;4.10;;;1.48;;
34505;SDS011;20748;42.632;23.198;2022-12-07T00:02:40;3.90;;;1.55;;
34505;SDS011;20748;42.632;23.198;2022-12-07T00:05:13;3.17;;;1.08;;
34505;SDS011;20748;42.632;23.198;2022-12-07T00:07:45;2.63;;;1.65;;
34505;SDS011;20748;42.632;23.198;2022-12-07T00:10:17;2.17;;;0.90;;
34505;SDS011;20748;42.632;23.198;2022-12-07T00:12:51;2.00;;;1.15;;
34505;SDS011;20748;42.632;23.198;2022-12-07T00:15:23;7.20;;;1.67;;
34505;SDS011;20748;42.632;23.198;2022-12-07T00:17:55;3.85;;;1.15;;
34505;SDS011;20748;42.632;23.198;2022-12-07T00:20:28;3.33;;;1.60;;
34505;SDS011;20748;42.632;23.198;2022-12-07T00:23:00;4.45;;;1.35;;
34505;SDS011;20748;42.632;23.198;2022-12-07T00:25:32;1.83;;;1.13;;
34505;SDS011;20748;42.632;23.198;2022-12-07T00:28:05;5.47;;;1.30;;
34505;SDS011;20748;42.632;23.198;2022-12-07T00:30:40;4.95;;;1.33;;
34505;SDS011;20748;42.632;23.198;2022-12-07T00:33:13;5.35;;;1.88;;
34505;SDS011;20748;42.632;23.198;2022-12-07T00:35:45;1.85;;;1.48;;
34505;SDS011;20748;42.632;23.198;2022-12-07T00:38:17;3.45;;;1.55;;
34505;SDS011;20748;42.632;23.198;2022-12-07T00:40:53;5.13;;;2.03;;
34505;SDS011;20748;42.632;23.198;2022-12-07T00:43:28;3.90;;;2.17;;
34505;SDS011;20748;42.632;23.198;2022-12-07T00:46:01;3.05;;;1.45;;
34505;SDS011;20748;42.632;23.198;2022-12-07T00:48:33;5.45;;;2.55;;
34505;SDS011;20748;42.632;23.198;2022-12-07T00:51:06;9.10;;;2.15;;
34505;SDS011;20748;42.632;23.198;2022-12-07T00:53:39;6.53;;;2.05;;
34505;SDS011;20748;42.632;23.198;2022-12-07T00:56:13;4.70;;;1.88;;
34505;SDS011;20748;42.632;23.198;2022-12-07T00:58:52;10.13;;;2.80;;
34505;SDS011;20748;42.632;23.198;2022-12-07T01:01:26;4.10;;;1.65;;
34505;SDS011;20748;42.632;23.198;2022-12-07T01:04:00;9.23;;;3.63;;
34505;SDS011;20748;42.632;23.198;2022-12-07T01:06:33;12.38;;;5.40;;
34505;SDS011;20748;42.632;23.198;2022-12-07T01:09:06;10.60;;;4.57;;
34505;SDS011;20748;42.632;23.198;2022-12-07T01:11:38;13.63;;;5.40;;
34505;SDS011;20748;42.632;23.198;2022-12-07T01:14:12;17.63;;;5.88;;
34505;SDS011;20748;42.632;23.198;2022-12-07T01:16:44;14.45;;;5.18;;
34505;SDS011;20748;42.632;23.198;2022-12-07T01:19:17;7.55;;;2.92;;
34505;SDS011;20748;42.632;23.198;2022-12-07T01:21:49;5.18;;;2.13;;
34505;SDS011;20748;42.632;23.198;2022-12-07T01:24:21;3.08;;;1.48;;
34505;SDS011;20748;42.632;23.198;2022-12-07T01:26:54;4.93;;;2.03;;
34505;SDS011;20748;42.632;23.198;2022-12-07T01:29:27;3.22;;;1.70;;
34505;SDS011;20748;42.632;23.198;2022-12-07T01:31:59;5.03;;;2.05;;
34505;SDS011;20748;42.632;23.198;2022-12-07T01:34:32;2.72;;;1.60;;
34505;SDS011;20748;42.632;23.198;2022-12-07T01:37:04;3.45;;;1.70;;
34505;SDS011;20748;42.632;23.198;2022-12-07T01:39:36;4.78;;;1.67;;
34505;SDS011;20748;42.632;23.198;2022-12-07T01:42:09;3.55;;;1.52;;
34505;SDS011;20748;42.632;23.198;2022-12-07T01:48:08;6.13;;;1.88;;
34505;SDS011;20748;42.632;23.198;2022-12-07T01:50:43;5.05;;;1.85;;
34505;SDS011;20748;42.632;23.198;2022-12-07T01:53:19;2.40;;;1.67;;
34505;SDS011;20748;42.632;23.198;2022-12-07T01:55:56;8.00;;;2.55;;
34505;SDS011;20748;42.632;23.198;2022-12-07T01:58:30;4.25;;;2.03;;
34505;SDS011;20748;42.632;23.198;2022-12-07T02:01:03;4.07;;;1.52;;
34505;SDS011;20748;42.632;23.198;2022-12-07T02:03:38;6.93;;;2.88;;
34505;SDS011;20748;42.632;23.198;2022-12-07T02:06:12;12.10;;;4.75;;
34505;SDS011;20748;42.632;23.198;2022-12-07T02:08:48;17.75;;;7.13;;
34505;SDS011;20748;42.632;23.198;2022-12-07T02:11:21;11.00;;;4.13;;
34505;SDS011;20748;42.632;23.198;2022-12-07T02:13:53;7.78;;;2.10;;
34505;SDS011;20748;42.632;23.198;2022-12-07T02:16:28;5.30;;;2.28;;
34505;SDS011;20748;42.632;23.198;2022-12-07T02:22:40;4.93;;;2.00;;
34505;SDS011;20748;42.632;23.198;2022-12-07T02:25:33;3.53;;;1.20;;
34505;SDS011;20748;42.632;23.198;2022-12-07T02:28:26;6.75;;;1.90;;
34505;SDS011;20748;42.632;23.198;2022-12-07T02:31:05;2.83;;;1.35;;
34505;SDS011;20748;42.632;23.198;2022-12-07T02:36:19;4.18;;;1.40;;
34505;SDS011;20748;42.632;23.198;2022-12-07T02:38:58;9.57;;;2.25;;
34505;SDS011;20748;42.632;23.198;2022-12-07T02:41:36;7.93;;;3.25;;
34505;SDS011;20748;42.632;23.198;2022-12-07T02:44:12;4.75;;;1.92;;
34505;SDS011;20748;42.632;23.198;2022-12-07T02:46:51;2.88;;;1.35;;
34505;SDS011;20748;42.632;23.198;2022-12-07T02:49:26;5.70;;;2.40;;
34505;SDS011;20748;42.632;23.198;2022-12-07T02:52:00;5.32;;;2.35;;
34505;SDS011;20748;42.632;23.198;2022-12-07T02:54:32;7.70;;;2.08;;
34505;SDS011;20748;42.632;23.198;2022-12-07T02:57:09;4.97;;;1.35;;
34505;SDS011;20748;42.632;23.198;2022-12-07T03:00:00;4.53;;;2.17;;
34505;SDS011;20748;42.632;23.198;2022-12-07T03:02:40;11.55;;;4.20;;
34505;SDS011;20748;42.632;23.198;2022-12-07T03:05:25;8.70;;;3.15;;
34505;SDS011;20748;42.632;23.198;2022-12-07T03:08:11;7.45;;;3.17;;
34505;SDS011;20748;42.632;23.198;2022-12-07T03:10:50;4.78;;;1.83;;
34505;SDS011;20748;42.632;23.198;2022-12-07T03:16:07;6.68;;;1.98;;
34505;SDS011;20748;42.632;23.198;2022-12-07T03:18:48;4.68;;;1.95;;
34505;SDS011;20748;42.632;23.198;2022-12-07T03:21:25;7.10;;;2.47;;
34505;SDS011;20748;42.632;23.198;2022-12-07T03:24:03;13.90;;;5.70;;
34505;SDS011;20748;42.632;23.198;2022-12-07T03:26:40;13.27;;;3.43;;
34505;SDS011;20748;42.632;23.198;2022-12-07T03:29:19;13.43;;;4.88;;
34505;SDS011;20748;42.632;23.198;2022-12-07T03:31:58;14.68;;;7.20;;
34505;SDS011;20748;42.632;23.198;2022-12-07T03:34:38;11.50;;;4.53;;
34505;SDS011;20748;42.632;23.198;2022-12-07T03:37:17;11.73;;;4.25;;
34505;SDS011;20748;42.632;23.198;2022-12-07T03:39:57;13.57;;;6.18;;
34505;SDS011;20748;42.632;23.198;2022-12-07T03:42:37;17.73;;;6.78;;
34505;SDS011;20748;42.632;23.198;2022-12-07T03:45:09;12.77;;;6.03;;
34505;SDS011;20748;42.632;23.198;2022-12-07T03:47:45;16.08;;;6.90;;
34505;SDS011;20748;42.632;23.198;2022-12-07T03:50:23;19.67;;;6.22;;
34505;SDS011;20748;42.632;23.198;2022-12-07T03:53:01;17.00;;;8.13;;
34505;SDS011;20748;42.632;23.198;2022-12-07T03:55:41;16.13;;;6.13;;
34505;SDS011;20748;42.632;23.198;2022-12-07T03:58:16;19.17;;;6.80;;
34505;SDS011;20748;42.632;23.198;2022-12-07T04:00:51;16.30;;;6.15;;
34505;SDS011;20748;42.632;23.198;2022-12-07T04:03:23;16.52;;;6.93;;
34505;SDS011;20748;42.632;23.198;2022-12-07T04:05:56;15.18;;;7.80;;
34505;SDS011;20748;42.632;23.198;2022-12-07T04:08:30;21.92;;;7.07;;
34505;SDS011;20748;42.632;23.198;2022-12-07T04:11:02;23.80;;;7.22;;
34505;SDS011;20748;42.632;23.198;2022-12-07T04:13:34;20.17;;;6.65;;
34505;SDS011;20748;42.632;23.198;2022-12-07T04:16:27;13.50;;;6.15;;
34505;SDS011;20748;42.632;23.198;2022-12-07T04:18:59;11.35;;;5.75;;
34505;SDS011;20748;42.632;23.198;2022-12-07T04:21:32;18.58;;;5.47;;
34505;SDS011;20748;42.632;23.198;2022-12-07T04:24:05;15.77;;;5.65;;
34505;SDS011;20748;42.632;23.198;2022-12-07T04:26:37;15.23;;;5.43;;
34505;SDS011;20748;42.632;23.198;2022-12-07T04:29:10;13.98;;;5.55;;
34505;SDS011;20748;42.632;23.198;2022-12-07T04:31:43;14.50;;;4.65;;
34505;SDS011;20748;42.632;23.198;2022-12-07T04:34:16;7.80;;;3.25;;
34505;SDS011;20748;42.632;23.198;2022-12-07T04:36:50;15.05;;;4.65;;
34505;SDS011;20748;42.632;23.198;2022-12-07T04:39:23;10.63;;;4.82;;
34505;SDS011;20748;42.632;23.198;2022-12-07T04:41:57;8.38;;;3.08;;
34505;SDS011;20748;42.632;23.198;2022-12-07T04:44:30;7.13;;;3.13;;
34505;SDS011;20748;42.632;23.198;2022-12-07T04:47:03;5.60;;;2.55;;
34505;SDS011;20748;42.632;23.198;2022-12-07T04:49:35;19.38;;;4.70;;
34505;SDS011;20748;42.632;23.198;2022-12-07T04:52:08;10.35;;;3.88;;
34505;SDS011;20748;42.632;23.198;2022-12-07T04:54:40;4.78;;;2.17;;
34505;SDS011;20748;42.632;23.198;2022-12-07T04:57:13;5.72;;;2.15;;
34505;SDS011;20748;42.632;23.198;2022-12-07T04:59:45;5.88;;;2.83;;
34505;SDS011;20748;42.632;23.198;2022-12-07T05:02:18;9.57;;;2.60;;
34505;SDS011;20748;42.632;23.198;2022-12-07T05:04:50;3.45;;;2.13;;
34505;SDS011;20748;42.632;23.198;2022-12-07T05:07:23;6.55;;;2.70;;
34505;SDS011;20748;42.632;23.198;2022-12-07T05:09:55;4.72;;;2.00;;
34505;SDS011;20748;42.632;23.198;2022-12-07T05:12:28;8.82;;;5.50;;
34505;SDS011;20748;42.632;23.198;2022-12-07T05:15:00;19.95;;;8.02;;
34505;SDS011;20748;42.632;23.198;2022-12-07T05:17:33;17.30;;;6.88;;
34505;SDS011;20748;42.632;23.198;2022-12-07T05:20:05;15.60;;;6.05;;
34505;SDS011;20748;42.632;23.198;2022-12-07T05:22:39;14.32;;;5.88;;
34505;SDS011;20748;42.632;23.198;2022-12-07T05:25:12;14.30;;;6.75;;
34505;SDS011;20748;42.632;23.198;2022-12-07T05:27:44;13.93;;;6.07;;
34505;SDS011;20748;42.632;23.198;2022-12-07T05:30:17;8.25;;;3.15;;
34505;SDS011;20748;42.632;23.198;2022-12-07T05:32:49;6.57;;;3.30;;
34505;SDS011;20748;42.632;23.198;2022-12-07T05:35:21;5.03;;;2.35;;
34505;SDS011;20748;42.632;23.198;2022-12-07T05:37:55;8.70;;;3.15;;
34505;SDS011;20748;42.632;23.198;2022-12-07T05:40:28;6.40;;;2.53;;
34505;SDS011;20748;42.632;23.198;2022-12-07T05:43:00;8.88;;;3.85;;
34505;SDS011;20748;42.632;23.198;2022-12-07T05:45:36;8.55;;;2.95;;
34505;SDS011;20748;42.632;23.198;2022-12-07T05:48:08;9.35;;;3.17;;
34505;SDS011;20748;42.632;23.198;2022-12-07T05:50:40;4.45;;;2.40;;
34505;SDS011;20748;42.632;23.198;2022-12-07T05:53:14;3.80;;;1.75;;
34505;SDS011;20748;42.632;23.198;2022-12-07T05:55:53;8.57;;;4.53;;
34505;SDS011;20748;42.632;23.198;2022-12-07T05:58:26;10.40;;;4.15;;
34505;SDS011;20748;42.632;23.198;2022-12-07T06:01:16;7.55;;;3.40;;
34505;SDS011;20748;42.632;23.198;2022-12-07T06:03:49;11.32;;;4.55;;
34505;SDS011;20748;42.632;23.198;2022-12-07T06:06:21;11.23;;;3.88;;
34505;SDS011;20748;42.632;23.198;2022-12-07T06:08:54;6.80;;;2.92;;
34505;SDS011;20748;42.632;23.198;2022-12-07T06:11:26;5.80;;;2.75;;
34505;SDS011;20748;42.632;23.198;2022-12-07T06:14:17;9.80;;;2.70;;
34505;SDS011;20748;42.632;23.198;2022-12-07T06:16:49;5.32;;;2.30;;
34505;SDS011;20748;42.632;23.198;2022-12-07T06:19:22;5.65;;;2.80;;
34505;SDS011;20748;42.632;23.198;2022-12-07T06:21:54;11.55;;;3.72;;
34505;SDS011;20748;42.632;23.198;2022-12-07T06:24:27;7.13;;;2.92;;
34505;SDS011;20748;42.632;23.198;2022-12-07T06:27:00;4.60;;;2.53;;
34505;SDS011;20748;42.632;23.198;2022-12-07T06:29:32;4.40;;;1.80;;
34505;SDS011;20748;42.632;23.198;2022-12-07T06:32:05;7.72;;;3.72;;
34505;SDS011;20748;42.632;23.198;2022-12-07T06:34:37;15.00;;;5.10;;
34505;SDS011;20748;42.632;23.198;2022-12-07T06:37:10;6.57;;;3.03;;
34505;SDS011;20748;42.632;23.198;2022-12-07T06:39:43;12.85;;;4.82;;
34505;SDS011;20748;42.632;23.198;2022-12-07T06:42:16;10.38;;;4.50;;
34505;SDS011;20748;42.632;23.198;2022-12-07T06:44:48;4.35;;;2.58;;
34505;SDS011;20748;42.632;23.198;2022-12-07T06:47:21;7.28;;;3.78;;
34505;SDS011;20748;42.632;23.198;2022-12-07T06:50:12;6.32;;;2.70;;
34505;SDS011;20748;42.632;23.198;2022-12-07T06:52:44;6.32;;;2.78;;
34505;SDS011;20748;42.632;23.198;2022-12-07T06:55:17;11.98;;;3.03;;
34505;SDS011;20748;42.632;23.198;2022-12-07T06:57:49;5.32;;;2.70;;
34505;SDS011;20748;42.632;23.198;2022-12-07T07:00:22;7.80;;;3.33;;
34505;SDS011;20748;42.632;23.198;2022-12-07T07:02:54;17.75;;;6.45;;
34505;SDS011;20748;42.632;23.198;2022-12-07T07:05:27;19.30;;;8.02;;
34505;SDS011;20748;42.632;23.198;2022-12-07T07:07:59;14.55;;;6.05;;
34505;SDS011;20748;42.632;23.198;2022-12-07T07:10:53;21.95;;;7.95;;
34505;SDS011;20748;42.632;23.198;2022-12-07T07:13:25;18.92;;;9.55;;
34505;SDS011;20748;42.632;23.198;2022-12-07T07:15:57;25.58;;;10.55;;
34505;SDS011;20748;42.632;23.198;2022-12-07T07:18:30;12.63;;;5.55;;
34505;SDS011;20748;42.632;23.198;2022-12-07T07:21:02;24.98;;;10.05;;
34505;SDS011;20748;42.632;23.198;2022-12-07T07:23:35;23.92;;;10.98;;
34505;SDS011;20748;42.632;23.198;2022-12-07T07:26:08;13.35;;;4.88;;
34505;SDS011;20748;42.632;23.198;2022-12-07T07:28:41;10.90;;;4.68;;
34505;SDS011;20748;42.632;23.198;2022-12-07T07:31:13;29.55;;;9.65;;
34505;SDS011;20748;42.632;23.198;2022-12-07T07:33:46;18.70;;;6.72;;
34505;SDS011;20748;42.632;23.198;2022-12-07T07:36:18;24.90;;;7.57;;
34505;SDS011;20748;42.632;23.198;2022-12-07T07:38:50;17.73;;;7.20;;
34505;SDS011;20748;42.632;23.198;2022-12-07T07:41:23;26.90;;;10.07;;
34505;SDS011;20748;42.632;23.198;2022-12-07T07:43:56;19.63;;;7.35;;
34505;SDS011;20748;42.632;23.198;2022-12-07T07:46:28;27.73;;;11.18;;
34505;SDS011;20748;42.632;23.198;2022-12-07T07:49:01;16.52;;;8.30;;
34505;SDS011;20748;42.632;23.198;2022-12-07T07:51:33;19.15;;;7.30;;
34505;SDS011;20748;42.632;23.198;2022-12-07T07:54:06;15.98;;;5.43;;
34505;SDS011;20748;42.632;23.198;2022-12-07T07:56:39;13.95;;;4.88;;
34505;SDS011;20748;42.632;23.198;2022-12-07T07:59:11;9.95;;;3.92;;
34505;SDS011;20748;42.632;23.198;2022-12-07T08:01:44;13.15;;;4.80;;
34505;SDS011;20748;42.632;23.198;2022-12-07T08:04:16;6.25;;;2.33;;
34505;SDS011;20748;42.632;23.198;2022-12-07T08:06:49;6.43;;;2.72;;
34505;SDS011;20748;42.632;23.198;2022-12-07T08:09:21;8.50;;;2.50;;
34505;SDS011;20748;42.632;23.198;2022-12-07T08:11:54;8.75;;;3.53;;
34505;SDS011;20748;42.632;23.198;2022-12-07T08:14:27;4.25;;;2.08;;
34505;SDS011;20748;42.632;23.198;2022-12-07T08:17:00;7.63;;;2.42;;
34505;SDS011;20748;42.632;23.198;2022-12-07T08:19:32;5.32;;;1.95;;
34505;SDS011;20748;42.632;23.198;2022-12-07T08:22:06;3.85;;;1.50;;
34505;SDS011;20748;42.632;23.198;2022-12-07T08:24:38;3.47;;;1.80;;
34505;SDS011;20748;42.632;23.198;2022-12-07T08:27:11;3.03;;;1.50;;
34505;SDS011;20748;42.632;23.198;2022-12-07T08:29:44;7.82;;;2.25;;
34505;SDS011;20748;42.632;23.198;2022-12-07T08:32:16;5.43;;;2.30;;
34505;SDS011;20748;42.632;23.198;2022-12-07T08:34:48;4.50;;;1.88;;
34505;SDS011;20748;42.632;23.198;2022-12-07T08:37:21;3.78;;;1.63;;
34505;SDS011;20748;42.632;23.198;2022-12-07T08:39:53;4.00;;;1.85;;
34505;SDS011;20748;42.632;23.198;2022-12-07T08:42:26;5.35;;;2.22;;
34505;SDS011;20748;42.632;23.198;2022-12-07T08:45:01;4.20;;;1.95;;
34505;SDS011;20748;42.632;23.198;2022-12-07T08:47:33;4.35;;;1.90;;
34505;SDS011;20748;42.632;23.198;2022-12-07T08:50:07;3.97;;;1.40;;
34505;SDS011;20748;42.632;23.198;2022-12-07T08:52:41;7.05;;;2.72;;
34505;SDS011;20748;42.632;23.198;2022-12-07T08:55:14;10.20;;;3.05;;
34505;SDS011;20748;42.632;23.198;2022-12-07T08:57:47;4.32;;;2.38;;
34505;SDS011;20748;42.632;23.198;2022-12-07T09:00:20;7.20;;;2.53;;
34505;SDS011;20748;42.632;23.198;2022-12-07T09:02:53;7.70;;;2.47;;
34505;SDS011;20748;42.632;23.198;2022-12-07T09:05:25;8.43;;;2.10;;
34505;SDS011;20748;42.632;23.198;2022-12-07T09:07:59;4.35;;;2.35;;
34505;SDS011;20748;42.632;23.198;2022-12-07T09:10:33;4.80;;;2.47;;
34505;SDS011;20748;42.632;23.198;2022-12-07T09:13:06;5.50;;;2.00;;
34505;SDS011;20748;42.632;23.198;2022-12-07T09:15:39;9.20;;;2.70;;
34505;SDS011;20748;42.632;23.198;2022-12-07T09:18:11;4.75;;;1.92;;
34505;SDS011;20748;42.632;23.198;2022-12-07T09:20:43;4.50;;;2.20;;
34505;SDS011;20748;42.632;23.198;2022-12-07T09:23:16;5.20;;;1.85;;
34505;SDS011;20748;42.632;23.198;2022-12-07T09:25:48;3.33;;;1.75;;
34505;SDS011;20748;42.632;23.198;2022-12-07T09:28:21;4.05;;;1.73;;
34505;SDS011;20748;42.632;23.198;2022-12-07T09:30:54;14.27;;;4.00;;
34505;SDS011;20748;42.632;23.198;2022-12-07T09:33:46;3.95;;;1.90;;
34505;SDS011;20748;42.632;23.198;2022-12-07T09:36:19;4.32;;;2.13;;
34505;SDS011;20748;42.632;23.198;2022-12-07T09:38:51;7.10;;;2.70;;
34505;SDS011;20748;42.632;23.198;2022-12-07T09:41:24;4.93;;;2.33;;
34505;SDS011;20748;42.632;23.198;2022-12-07T09:44:02;6.15;;;1.98;;
34505;SDS011;20748;42.632;23.198;2022-12-07T09:46:37;7.70;;;1.95;;
34505;SDS011;20748;42.632;23.198;2022-12-07T09:49:12;5.20;;;2.65;;
34505;SDS011;20748;42.632;23.198;2022-12-07T09:51:58;7.20;;;1.95;;
34505;SDS011;20748;42.632;23.198;2022-12-07T09:54:33;3.38;;;1.60;;
34505;SDS011;20748;42.632;23.198;2022-12-07T09:57:08;4.20;;;1.98;;
34505;SDS011;20748;42.632;23.198;2022-12-07T09:59:44;5.47;;;2.33;;
34505;SDS011;20748;42.632;23.198;2022-12-07T10:02:23;3.85;;;1.58;;
34505;SDS011;20748;42.632;23.198;2022-12-07T10:05:01;5.90;;;2.30;;
34505;SDS011;20748;42.632;23.198;2022-12-07T10:07:37;5.50;;;2.20;;
34505;SDS011;20748;42.632;23.198;2022-12-07T10:10:13;5.43;;;1.70;;
34505;SDS011;20748;42.632;23.198;2022-12-07T10:12:53;2.92;;;1.70;;
34505;SDS011;20748;42.632;23.198;2022-12-07T10:15:47;9.65;;;1.80;;
34505;SDS011;20748;42.632;23.198;2022-12-07T10:18:27;3.70;;;1.30;;
34505;SDS011;20748;42.632;23.198;2022-12-07T10:21:02;6.50;;;1.52;;
34505;SDS011;20748;42.632;23.198;2022-12-07T10:23:58;4.45;;;1.23;;
34505;SDS011;20748;42.632;23.198;2022-12-07T10:29:14;4.90;;;1.77;;
34505;SDS011;20748;42.632;23.198;2022-12-07T10:31:51;2.05;;;1.17;;
34505;SDS011;20748;42.632;23.198;2022-12-07T10:34:27;2.78;;;1.55;;
34505;SDS011;20748;42.632;23.198;2022-12-07T10:37:15;5.10;;;1.65;;
34505;SDS011;20748;42.632;23.198;2022-12-07T10:39:49;3.00;;;1.40;;
34505;SDS011;20748;42.632;23.198;2022-12-07T10:42:24;4.10;;;1.55;;
34505;SDS011;20748;42.632;23.198;2022-12-07T10:45:06;6.53;;;2.22;;
34505;SDS011;20748;42.632;23.198;2022-12-07T10:47:43;4.38;;;1.52;;
34505;SDS011;20748;42.632;23.198;2022-12-07T10:53:29;3.42;;;1.60;;
34505;SDS011;20748;42.632;23.198;2022-12-07T10:56:24;3.88;;;1.90;;
34505;SDS011;20748;42.632;23.198;2022-12-07T11:02:21;2.70;;;1.65;;
34505;SDS011;20748;42.632;23.198;2022-12-07T11:05:01;7.18;;;2.50;;
34505;SDS011;20748;42.632;23.198;2022-12-07T11:07:46;3.38;;;1.98;;
34505;SDS011;20748;42.632;23.198;2022-12-07T11:10:33;3.42;;;1.83;;
34505;SDS011;20748;42.632;23.198;2022-12-07T11:13:19;4.93;;;1.98;;
34505;SDS011;20748;42.632;23.198;2022-12-07T11:16:08;3.85;;;2.10;;
34505;SDS011;20748;42.632;23.198;2022-12-07T11:18:59;3.13;;;1.67;;
34505;SDS011;20748;42.632;23.198;2022-12-07T11:21:40;3.60;;;1.60;;
34505;SDS011;20748;42.632;23.198;2022-12-07T11:24:19;3.58;;;1.75;;
34505;SDS011;20748;42.632;23.198;2022-12-07T11:27:02;4.72;;;2.15;;
34505;SDS011;20748;42.632;23.198;2022-12-07T11:29:47;6.07;;;1.52;;
34505;SDS011;20748;42.632;23.198;2022-12-07T11:32:34;3.70;;;1.35;;
34505;SDS011;20748;42.632;23.198;2022-12-07T11:35:19;1.63;;;1.05;;
34505;SDS011;20748;42.632;23.198;2022-12-07T11:37:57;4.10;;;1.20;;
34505;SDS011;20748;42.632;23.198;2022-12-07T11:40:34;2.33;;;1.23;;
34505;SDS011;20748;42.632;23.198;2022-12-07T11:43:11;5.82;;;1.50;;
34505;SDS011;20748;42.632;23.198;2022-12-07T11:45:52;3.95;;;1.88;;
34505;SDS011;20748;42.632;23.198;2022-12-07T11:48:31;2.00;;;1.38;;
34505;SDS011;20748;42.632;23.198;2022-12-07T11:51:07;4.32;;;1.73;;
34505;SDS011;20748;42.632;23.198;2022-12-07T11:53:44;4.53;;;2.33;;
34505;SDS011;20748;42.632;23.198;2022-12-07T11:56:21;3.08;;;1.50;;
34505;SDS011;20748;42.632;23.198;2022-12-07T11:58:57;3.58;;;1.52;;
34505;SDS011;20748;42.632;23.198;2022-12-07T12:01:41;4.28;;;1.88;;
34505;SDS011;20748;42.632;23.198;2022-12-07T12:04:23;6.00;;;1.80;;
34505;SDS011;20748;42.632;23.198;2022-12-07T12:07:03;4.22;;;2.05;;
34505;SDS011;20748;42.632;23.198;2022-12-07T12:09:59;3.08;;;1.27;;
34505;SDS011;20748;42.632;23.198;2022-12-07T12:12:42;5.05;;;2.00;;
34505;SDS011;20748;42.632;23.198;2022-12-07T12:15:57;3.97;;;1.60;;
34505;SDS011;20748;42.632;23.198;2022-12-07T12:18:42;3.53;;;1.85;;
34505;SDS011;20748;42.632;23.198;2022-12-07T12:21:34;3.83;;;2.10;;
34505;SDS011;20748;42.632;23.198;2022-12-07T12:24:09;10.23;;;2.97;;
34505;SDS011;20748;42.632;23.198;2022-12-07T12:26:49;7.97;;;2.55;;
34505;SDS011;20748;42.632;23.198;2022-12-07T12:29:23;5.68;;;2.13;;
34505;SDS011;20748;42.632;23.198;2022-12-07T12:32:04;5.90;;;1.90;;
34505;SDS011;20748;42.632;23.198;2022-12-07T12:34:57;3.58;;;1.90;;
34505;SDS011;20748;42.632;23.198;2022-12-07T12:37:44;4.93;;;1.73;;
34505;SDS011;20748;42.632;23.198;2022-12-07T12:40:37;4.82;;;2.00;;
34505;SDS011;20748;42.632;23.198;2022-12-07T12:58:42;8.48;;;1.80;;
34505;SDS011;20748;42.632;23.198;2022-12-07T13:04:23;2.80;;;1.60;;
34505;SDS011;20748;42.632;23.198;2022-12-07T13:07:02;3.70;;;1.92;;
34505;SDS011;20748;42.632;23.198;2022-12-07T13:09:35;4.05;;;1.75;;
34505;SDS011;20748;42.632;23.198;2022-12-07T13:12:11;3.25;;;1.63;;
34505;SDS011;20748;42.632;23.198;2022-12-07T13:14:56;6.43;;;2.58;;
34505;SDS011;20748;42.632;23.198;2022-12-07T13:20:51;3.92;;;1.48;;
34505;SDS011;20748;42.632;23.198;2022-12-07T13:23:26;2.75;;;1.52;;
34505;SDS011;20748;42.632;23.198;2022-12-07T13:26:05;4.75;;;2.30;;
34505;SDS011;20748;42.632;23.198;2022-12-07T13:28:50;3.60;;;1.33;;
34505;SDS011;20748;42.632;23.198;2022-12-07T13:31:33;4.80;;;1.90;;
34505;SDS011;20748;42.632;23.198;2022-12-07T13:37:09;7.88;;;1.77;;
34505;SDS011;20748;42.632;23.198;2022-12-07T13:39:46;3.78;;;1.70;;
34505;SDS011;20748;42.632;23.198;2022-12-07T13:42:22;3.55;;;1.45;;
34505;SDS011;20748;42.632;23.198;2022-12-07T13:44:58;3.95;;;1.40;;
34505;SDS011;20748;42.632;23.198;2022-12-07T13:47:34;3.63;;;1.42;;
34505;SDS011;20748;42.632;23.198;2022-12-07T13:50:22;2.05;;;1.15;;
34505;SDS011;20748;42.632;23.198;2022-12-07T13:52:56;3.85;;;1.40;;
34505;SDS011;20748;42.632;23.198;2022-12-07T13:55:29;2.50;;;1.42;;
34505;SDS011;20748;42.632;23.198;2022-12-07T13:58:02;2.50;;;1.30;;
34505;SDS011;20748;42.632;23.198;2022-12-07T14:00:34;5.18;;;1.15;;
34505;SDS011;20748;42.632;23.198;2022-12-07T14:03:20;4.50;;;1.42;;
34505;SDS011;20748;42.632;23.198;2022-12-07T14:06:04;2.90;;;1.73;;
34505;SDS011;20748;42.632;23.198;2022-12-07T14:08:48;3.88;;;1.50;;
34505;SDS011;20748;42.632;23.198;2022-12-07T14:11:28;2.25;;;1.17;;
34505;SDS011;20748;42.632;23.198;2022-12-07T14:14:02;4.93;;;2.03;;
34505;SDS011;20748;42.632;23.198;2022-12-07T14:16:36;10.55;;;3.30;;
34505;SDS011;20748;42.632;23.198;2022-12-07T14:22:26;2.92;;;1.45;;
34505;SDS011;20748;42.632;23.198;2022-12-07T14:27:58;3.53;;;2.20;;
34505;SDS011;20748;42.632;23.198;2022-12-07T14:30:32;3.30;;;1.73;;
34505;SDS011;20748;42.632;23.198;2022-12-07T14:33:08;3.67;;;1.50;;
34505;SDS011;20748;42.632;23.198;2022-12-07T14:35:41;4.30;;;1.45;;
34505;SDS011;20748;42.632;23.198;2022-12-07T14:38:14;5.25;;;1.88;;
34505;SDS011;20748;42.632;23.198;2022-12-07T14:40:46;3.65;;;1.85;;
34505;SDS011;20748;42.632;23.198;2022-12-07T14:43:19;3.63;;;2.45;;
34505;SDS011;20748;42.632;23.198;2022-12-07T14:45:52;8.98;;;2.30;;
34505;SDS011;20748;42.632;23.198;2022-12-07T14:48:24;5.63;;;1.50;;
34505;SDS011;20748;42.632;23.198;2022-12-07T14:51:16;7.95;;;1.75;;
34505;SDS011;20748;42.632;23.198;2022-12-07T14:54:11;6.35;;;1.83;;
34505;SDS011;20748;42.632;23.198;2022-12-07T14:59:22;3.38;;;1.70;;
34505;SDS011;20748;42.632;23.198;2022-12-07T15:01:54;2.90;;;1.52;;
34505;SDS011;20748;42.632;23.198;2022-12-07T15:04:27;4.75;;;1.85;;
34505;SDS011;20748;42.632;23.198;2022-12-07T15:07:00;3.00;;;1.52;;
34505;SDS011;20748;42.632;23.198;2022-12-07T15:09:35;4.15;;;2.22;;
34505;SDS011;20748;42.632;23.198;2022-12-07T15:12:07;3.28;;;1.83;;
34505;SDS011;20748;42.632;23.198;2022-12-07T15:14:39;3.08;;;1.42;;
34505;SDS011;20748;42.632;23.198;2022-12-07T15:17:12;4.85;;;1.75;;
34505;SDS011;20748;42.632;23.198;2022-12-07T15:19:59;4.85;;;2.53;;
34505;SDS011;20748;42.632;23.198;2022-12-07T15:22:31;10.75;;;2.35;;
34505;SDS011;20748;42.632;23.198;2022-12-07T15:25:12;3.55;;;1.83;;
34505;SDS011;20748;42.632;23.198;2022-12-07T15:27:45;3.22;;;1.63;;
34505;SDS011;20748;42.632;23.198;2022-12-07T15:30:18;5.50;;;1.92;;
34505;SDS011;20748;42.632;23.198;2022-12-07T15:32:50;6.97;;;2.30;;
34505;SDS011;20748;42.632;23.198;2022-12-07T15:35:23;6.22;;;2.55;;
34505;SDS011;20748;42.632;23.198;2022-12-07T15:37:56;3.60;;;1.80;;
34505;SDS011;20748;42.632;23.198;2022-12-07T15:40:29;6.25;;;2.13;;
34505;SDS011;20748;42.632;23.198;2022-12-07T15:43:01;8.30;;;2.47;;
34505;SDS011;20748;42.632;23.198;2022-12-07T15:45:34;5.72;;;1.63;;
34505;SDS011;20748;42.632;23.198;2022-12-07T15:48:06;5.75;;;2.53;;
34505;SDS011;20748;42.632;23.198;2022-12-07T15:51:01;4.05;;;1.55;;
34505;SDS011;20748;42.632;23.198;2022-12-07T15:53:35;3.83;;;1.80;;
34505;SDS011;20748;42.632;23.198;2022-12-07T15:56:08;4.50;;;1.92;;
34505;SDS011;20748;42.632;23.198;2022-12-07T15:58:40;2.90;;;1.55;;
34505;SDS011;20748;42.632;23.198;2022-12-07T16:01:13;3.58;;;2.08;;
34505;SDS011;20748;42.632;23.198;2022-12-07T16:03:47;5.22;;;1.75;;
34505;SDS011;20748;42.632;23.198;2022-12-07T16:06:20;5.03;;;1.70;;
34505;SDS011;20748;42.632;23.198;2022-12-07T16:08:53;5.90;;;2.80;;
34505;SDS011;20748;42.632;23.198;2022-12-07T16:11:26;6.50;;;2.97;;
34505;SDS011;20748;42.632;23.198;2022-12-07T16:13:58;6.18;;;3.75;;
34505;SDS011;20748;42.632;23.198;2022-12-07T16:16:31;5.00;;;2.35;;